sensor_id;sensor_type;location;lat;lon;timestamp;pressure;altitude;pressure_sealevel;temperature;humidity
72055;BME280;59936;51.490;5.436;2023-07-31T00:05:20;100943.31;;;16.44;86.16
72055;BME280;59936;51.490;5.436;2023-07-31T00:07:49;100937.66;;;16.38;83.33
72055;BME280;59936;51.490;5.436;2023-07-31T00:10:18;100941.44;;;16.44;82.29
72055;BME280;59936;51.490;5.436;2023-07-31T00:12:47;100939.38;;;16.46;82.57
72055;BME280;59936;51.490;5.436;2023-07-31T00:15:15;100934.16;;;16.45;83.04
72055;BME280;59936;51.490;5.436;2023-07-31T00:17:44;100937.88;;;16.44;82.91
72055;BME280;59936;51.490;5.436;2023-07-31T00:20:12;100945.59;;;16.47;83.12
72055;BME280;59936;51.490;5.436;2023-07-31T00:22:41;100946.25;;;16.49;83.10
72055;BME280;59936;51.490;5.436;2023-07-31T00:25:10;100936.06;;;16.51;83.72
72055;BME280;59936;51.490;5.436;2023-07-31T00:27:38;100936.06;;;16.51;83.72
72055;BME280;59936;51.490;5.436;2023-07-31T00:30:07;100940.84;;;16.49;83.11
72055;BME280;59936;51.490;5.436;2023-07-31T00:32:36;100942.50;;;16.50;83.01
72055;BME280;59936;51.490;5.436;2023-07-31T00:35:04;100930.66;;;16.51;82.85
72055;BME280;59936;51.490;5.436;2023-07-31T00:37:33;100925.88;;;16.53;82.97
72055;BME280;59936;51.490;5.436;2023-07-31T00:40:02;100929.19;;;16.55;83.28
72055;BME280;59936;51.490;5.436;2023-07-31T00:42:31;100929.19;;;16.55;83.28
72055;BME280;59936;51.490;5.436;2023-07-31T00:44:59;100937.94;;;16.57;83.16
72055;BME280;59936;51.490;5.436;2023-07-31T00:47:28;100937.94;;;16.57;83.16
72055;BME280;59936;51.490;5.436;2023-07-31T00:49:57;100924.00;;;16.53;83.59
72055;BME280;59936;51.490;5.436;2023-07-31T00:52:26;100924.00;;;16.53;83.72
72055;BME280;59936;51.490;5.436;2023-07-31T00:54:54;100919.63;;;16.52;83.79
72055;BME280;59936;51.490;5.436;2023-07-31T00:57:23;100917.53;;;16.54;83.40
72055;BME280;59936;51.490;5.436;2023-07-31T00:59:51;100923.38;;;16.58;83.14
72055;BME280;59936;51.490;5.436;2023-07-31T01:02:20;100917.31;;;16.56;83.32
72055;BME280;59936;51.490;5.436;2023-07-31T01:04:49;100920.66;;;16.58;82.97
72055;BME280;59936;51.490;5.436;2023-07-31T01:07:35;100912.53;;;16.58;82.93
72055;BME280;59936;51.490;5.436;2023-07-31T01:10:30;100916.91;;;16.52;83.30
72055;BME280;59936;51.490;5.436;2023-07-31T01:13:06;100916.91;;;16.52;83.30
72055;BME280;59936;51.490;5.436;2023-07-31T01:15:36;100909.00;;;16.51;83.43
72055;BME280;59936;51.490;5.436;2023-07-31T01:18:05;100917.97;;;16.51;83.28
72055;BME280;59936;51.490;5.436;2023-07-31T01:20:35;100900.25;;;16.49;83.55
72055;BME280;59936;51.490;5.436;2023-07-31T01:26:34;100916.09;;;16.52;82.87
72055;BME280;59936;51.490;5.436;2023-07-31T01:29:17;100914.22;;;16.52;82.80
72055;BME280;59936;51.490;5.436;2023-07-31T01:31:53;100914.22;;;16.52;82.80
72055;BME280;59936;51.490;5.436;2023-07-31T01:34:26;100910.25;;;16.48;82.83
72055;BME280;59936;51.490;5.436;2023-07-31T01:36:56;100904.00;;;16.48;82.63
72055;BME280;59936;51.490;5.436;2023-07-31T01:39:25;100904.59;;;16.43;83.54
72055;BME280;59936;51.490;5.436;2023-07-31T01:41:53;100907.09;;;16.45;83.14
72055;BME280;59936;51.490;5.436;2023-07-31T01:44:22;100903.38;;;16.46;82.83
72055;BME280;59936;51.490;5.436;2023-07-31T01:46:50;100903.38;;;16.46;82.71
72055;BME280;59936;51.490;5.436;2023-07-31T01:49:19;100898.78;;;16.46;82.69
72055;BME280;59936;51.490;5.436;2023-07-31T01:51:48;100909.81;;;16.45;82.70
72055;BME280;59936;51.490;5.436;2023-07-31T01:54:16;100911.69;;;16.44;82.61
72055;BME280;59936;51.490;5.436;2023-07-31T01:56:45;100892.75;;;16.44;82.49
72055;BME280;59936;51.490;5.436;2023-07-31T01:59:13;100892.75;;;16.44;82.49
72055;BME280;59936;51.490;5.436;2023-07-31T02:01:42;100895.00;;;16.40;82.29
72055;BME280;59936;51.490;5.436;2023-07-31T02:04:11;100886.28;;;16.38;82.15
72055;BME280;59936;51.490;5.436;2023-07-31T02:06:39;100887.72;;;16.34;82.32
72055;BME280;59936;51.490;5.436;2023-07-31T02:09:08;100887.06;;;16.32;82.26
72055;BME280;59936;51.490;5.436;2023-07-31T02:11:36;100878.56;;;16.29;82.53
72055;BME280;59936;51.490;5.436;2023-07-31T02:14:05;100875.03;;;16.28;82.36
72055;BME280;59936;51.490;5.436;2023-07-31T02:16:33;100867.09;;;16.27;82.36
72055;BME280;59936;51.490;5.436;2023-07-31T02:19:02;100864.00;;;16.30;82.01
72055;BME280;59936;51.490;5.436;2023-07-31T02:21:31;100871.28;;;16.29;82.16
72055;BME280;59936;51.490;5.436;2023-07-31T02:23:59;100871.28;;;16.29;82.16
72055;BME280;59936;51.490;5.436;2023-07-31T02:26:28;100863.81;;;16.31;82.04
72055;BME280;59936;51.490;5.436;2023-07-31T02:28:56;100863.81;;;16.31;82.04
72055;BME280;59936;51.490;5.436;2023-07-31T02:31:25;100855.47;;;16.26;82.10
72055;BME280;59936;51.490;5.436;2023-07-31T02:33:53;100853.16;;;16.23;82.27
72055;BME280;59936;51.490;5.436;2023-07-31T02:36:22;100852.97;;;16.25;81.97
72055;BME280;59936;51.490;5.436;2023-07-31T02:38:51;100855.66;;;16.25;81.94
72055;BME280;59936;51.490;5.436;2023-07-31T02:41:19;100845.25;;;16.22;82.18
72055;BME280;59936;51.490;5.436;2023-07-31T02:43:48;100843.38;;;16.22;81.97
72055;BME280;59936;51.490;5.436;2023-07-31T02:46:16;100840.69;;;16.22;82.02
72055;BME280;59936;51.490;5.436;2023-07-31T02:48:45;100835.06;;;16.24;81.87
72055;BME280;59936;51.490;5.436;2023-07-31T02:51:14;100848.78;;;16.22;82.09
72055;BME280;59936;51.490;5.436;2023-07-31T02:53:42;100839.63;;;16.23;81.83
72055;BME280;59936;51.490;5.436;2023-07-31T02:56:11;100836.94;;;16.23;81.67
72055;BME280;59936;51.490;5.436;2023-07-31T02:58:39;100853.16;;;16.23;81.75
72055;BME280;59936;51.490;5.436;2023-07-31T03:01:08;100839.66;;;16.30;81.60
72055;BME280;59936;51.490;5.436;2023-07-31T03:03:37;100839.66;;;16.30;81.60
72055;BME280;59936;51.490;5.436;2023-07-31T03:06:05;100833.81;;;16.26;81.60
72055;BME280;59936;51.490;5.436;2023-07-31T03:08:34;100834.66;;;16.27;81.64
72055;BME280;59936;51.490;5.436;2023-07-31T03:11:02;100831.75;;;16.28;81.67
72055;BME280;59936;51.490;5.436;2023-07-31T03:13:31;100824.88;;;16.26;82.56
72055;BME280;59936;51.490;5.436;2023-07-31T03:15:59;100829.47;;;16.25;82.04
72055;BME280;59936;51.490;5.436;2023-07-31T03:18:28;100829.47;;;16.25;82.04
72055;BME280;59936;51.490;5.436;2023-07-31T03:20:56;100831.13;;;16.26;81.76
72055;BME280;59936;51.490;5.436;2023-07-31T03:23:25;100834.88;;;16.32;81.86
72055;BME280;59936;51.490;5.436;2023-07-31T03:25:57;100834.88;;;16.32;81.86
72055;BME280;59936;51.490;5.436;2023-07-31T03:28:26;100830.28;;;16.32;81.71
72055;BME280;59936;51.490;5.436;2023-07-31T03:30:55;100822.81;;;16.34;82.00
72055;BME280;59936;51.490;5.436;2023-07-31T03:33:24;100823.03;;;16.39;81.72
72055;BME280;59936;51.490;5.436;2023-07-31T03:35:53;100824.50;;;16.42;81.71
72055;BME280;59936;51.490;5.436;2023-07-31T03:38:21;100806.84;;;16.53;81.10
72055;BME280;59936;51.490;5.436;2023-07-31T03:40:50;100806.84;;;16.53;81.10
72055;BME280;59936;51.490;5.436;2023-07-31T03:43:18;100809.31;;;16.48;81.48
72055;BME280;59936;51.490;5.436;2023-07-31T03:45:47;100807.25;;;16.50;81.48
72055;BME280;59936;51.490;5.436;2023-07-31T03:48:16;100801.19;;;16.54;81.44
72055;BME280;59936;51.490;5.436;2023-07-31T03:50:44;100799.53;;;16.60;81.47
72055;BME280;59936;51.490;5.436;2023-07-31T03:53:13;100799.53;;;16.60;81.47
72055;BME280;59936;51.490;5.436;2023-07-31T03:55:41;100795.19;;;16.59;81.31
72055;BME280;59936;51.490;5.436;2023-07-31T03:58:10;100789.56;;;16.60;81.37
72055;BME280;59936;51.490;5.436;2023-07-31T04:00:40;100780.19;;;16.63;81.45
72055;BME280;59936;51.490;5.436;2023-07-31T04:03:09;100785.19;;;16.66;81.69
72055;BME280;59936;51.490;5.436;2023-07-31T04:05:38;100785.19;;;16.66;81.69
72055;BME280;59936;51.490;5.436;2023-07-31T04:08:07;100779.16;;;16.64;81.85
72055;BME280;59936;51.490;5.436;2023-07-31T04:10:35;100773.13;;;16.68;81.76
72055;BME280;59936;51.490;5.436;2023-07-31T04:13:04;100775.22;;;16.73;82.12
72055;BME280;59936;51.490;5.436;2023-07-31T04:15:33;100775.22;;;16.73;82.12
72055;BME280;59936;51.490;5.436;2023-07-31T04:18:01;100766.91;;;16.74;81.73
72055;BME280;59936;51.490;5.436;2023-07-31T04:20:30;100768.31;;;16.77;81.67
72055;BME280;59936;51.490;5.436;2023-07-31T04:22:58;100764.16;;;16.81;81.75
72055;BME280;59936;51.490;5.436;2023-07-31T04:25:27;100758.34;;;16.84;81.81
72055;BME280;59936;51.490;5.436;2023-07-31T04:27:55;100754.59;;;16.85;81.78
72055;BME280;59936;51.490;5.436;2023-07-31T04:30:24;100761.88;;;16.91;81.69
72055;BME280;59936;51.490;5.436;2023-07-31T04:32:53;100754.19;;;17.01;81.40
72055;BME280;59936;51.490;5.436;2023-07-31T04:35:21;100749.81;;;17.00;81.49
72055;BME280;59936;51.490;5.436;2023-07-31T04:37:50;100755.84;;;17.02;81.43
72055;BME280;59936;51.490;5.436;2023-07-31T04:40:18;100741.28;;;17.03;81.55
72055;BME280;59936;51.490;5.436;2023-07-31T04:42:47;100735.84;;;17.03;82.26
72055;BME280;59936;51.490;5.436;2023-07-31T04:45:15;100739.81;;;17.07;81.82
72055;BME280;59936;51.490;5.436;2023-07-31T04:47:44;100739.81;;;17.07;81.82
72055;BME280;59936;51.490;5.436;2023-07-31T04:50:13;100731.28;;;17.11;81.67
72055;BME280;59936;51.490;5.436;2023-07-31T04:52:41;100731.28;;;17.11;81.67
72055;BME280;59936;51.490;5.436;2023-07-31T04:55:10;100722.94;;;17.12;81.62
72055;BME280;59936;51.490;5.436;2023-07-31T04:57:38;100725.22;;;17.15;81.48
72055;BME280;59936;51.490;5.436;2023-07-31T05:00:07;100724.41;;;17.15;81.59
72055;BME280;59936;51.490;5.436;2023-07-31T05:02:36;100725.84;;;17.17;81.66
72055;BME280;59936;51.490;5.436;2023-07-31T05:05:05;100725.63;;;17.19;81.44
72055;BME280;59936;51.490;5.436;2023-07-31T05:07:33;100725.41;;;17.20;81.48
72055;BME280;59936;51.490;5.436;2023-07-31T05:10:02;100725.41;;;17.20;81.48
72055;BME280;59936;51.490;5.436;2023-07-31T05:12:31;100718.16;;;17.14;81.55
72055;BME280;59936;51.490;5.436;2023-07-31T05:14:59;100712.72;;;17.14;81.27
72055;BME280;59936;51.490;5.436;2023-07-31T05:17:28;100711.28;;;17.12;81.43
72055;BME280;59936;51.490;5.436;2023-07-31T05:19:57;100711.28;;;17.12;81.43
72055;BME280;59936;51.490;5.436;2023-07-31T05:22:25;100718.38;;;17.06;81.50
72055;BME280;59936;51.490;5.436;2023-07-31T05:24:54;100712.31;;;17.04;81.37
72055;BME280;59936;51.490;5.436;2023-07-31T05:27:23;100705.88;;;16.98;81.92
72055;BME280;59936;51.490;5.436;2023-07-31T05:29:51;100715.88;;;16.98;81.92
72055;BME280;59936;51.490;5.436;2023-07-31T05:32:20;100713.78;;;17.00;81.65
72055;BME280;59936;51.490;5.436;2023-07-31T05:34:51;100707.53;;;16.99;81.60
72055;BME280;59936;51.490;5.436;2023-07-31T05:37:20;100719.00;;;17.01;81.53
72055;BME280;59936;51.490;5.436;2023-07-31T05:39:49;100714.84;;;16.92;82.39
72055;BME280;59936;51.490;5.436;2023-07-31T05:42:18;100726.69;;;16.85;82.10
72055;BME280;59936;51.490;5.436;2023-07-31T05:44:46;100726.69;;;16.85;82.10
72055;BME280;59936;51.490;5.436;2023-07-31T05:47:15;100714.41;;;16.75;82.51
72055;BME280;59936;51.490;5.436;2023-07-31T05:49:44;100701.75;;;16.69;82.05
72055;BME280;59936;51.490;5.436;2023-07-31T05:52:12;100696.97;;;16.65;82.58
72055;BME280;59936;51.490;5.436;2023-07-31T05:54:41;100697.56;;;16.60;82.39
72055;BME280;59936;51.490;5.436;2023-07-31T05:57:10;100694.03;;;16.60;82.62
72055;BME280;59936;51.490;5.436;2023-07-31T05:59:39;100690.91;;;16.56;82.99
72055;BME280;59936;51.490;5.436;2023-07-31T06:02:07;100687.38;;;16.56;82.79
72055;BME280;59936;51.490;5.436;2023-07-31T06:04:36;100686.78;;;16.54;83.13
72055;BME280;59936;51.490;5.436;2023-07-31T06:07:05;100693.84;;;16.48;85.13
72055;BME280;59936;51.490;5.436;2023-07-31T06:09:33;100693.84;;;16.48;85.13
72055;BME280;59936;51.490;5.436;2023-07-31T06:12:02;100681.16;;;16.49;83.94
72055;BME280;59936;51.490;5.436;2023-07-31T06:14:31;100682.41;;;16.53;84.44
72055;BME280;59936;51.490;5.436;2023-07-31T06:16:59;100686.53;;;16.55;83.33
72055;BME280;59936;51.490;5.436;2023-07-31T06:19:28;100675.34;;;16.52;84.02
72055;BME280;59936;51.490;5.436;2023-07-31T06:21:56;100675.97;;;16.54;83.54
72055;BME280;59936;51.490;5.436;2023-07-31T06:24:25;100668.88;;;16.53;83.94
72055;BME280;59936;51.490;5.436;2023-07-31T06:26:54;100670.94;;;16.57;83.89
72055;BME280;59936;51.490;5.436;2023-07-31T06:29:22;100670.94;;;16.57;83.89
72055;BME280;59936;51.490;5.436;2023-07-31T06:31:51;100676.97;;;16.59;83.84
72055;BME280;59936;51.490;5.436;2023-07-31T06:34:19;100667.00;;;16.60;84.82
72055;BME280;59936;51.490;5.436;2023-07-31T06:36:48;100674.69;;;16.63;84.59
72055;BME280;59936;51.490;5.436;2023-07-31T06:39:16;100664.06;;;16.68;83.92
72055;BME280;59936;51.490;5.436;2023-07-31T06:41:45;100664.28;;;16.66;84.90
72055;BME280;59936;51.490;5.436;2023-07-31T06:44:14;100658.47;;;16.69;84.41
72055;BME280;59936;51.490;5.436;2023-07-31T06:46:42;100657.41;;;16.70;85.62
72055;BME280;59936;51.490;5.436;2023-07-31T06:49:11;100655.97;;;16.68;85.24
72055;BME280;59936;51.490;5.436;2023-07-31T06:51:40;100650.53;;;16.68;85.14
72055;BME280;59936;51.490;5.436;2023-07-31T06:54:08;100648.47;;;16.70;84.55
72055;BME280;59936;51.490;5.436;2023-07-31T06:56:37;100650.34;;;16.69;84.73
72055;BME280;59936;51.490;5.436;2023-07-31T06:59:06;100644.31;;;16.67;84.96
72055;BME280;59936;51.490;5.436;2023-07-31T07:01:34;100645.13;;;16.68;84.88
72055;BME280;59936;51.490;5.436;2023-07-31T07:04:03;100653.47;;;16.66;85.04
72055;BME280;59936;51.490;5.436;2023-07-31T07:06:32;100655.13;;;16.74;84.62
72055;BME280;59936;51.490;5.436;2023-07-31T07:09:01;100655.13;;;16.74;84.62
72055;BME280;59936;51.490;5.436;2023-07-31T07:11:30;100649.25;;;16.77;84.91
72055;BME280;59936;51.490;5.436;2023-07-31T07:13:58;100645.09;;;16.81;85.02
72055;BME280;59936;51.490;5.436;2023-07-31T07:16:28;100642.38;;;16.88;84.69
72055;BME280;59936;51.490;5.436;2023-07-31T07:18:57;100623.84;;;16.91;84.70
72055;BME280;59936;51.490;5.436;2023-07-31T07:21:25;100636.34;;;16.92;84.82
72055;BME280;59936;51.490;5.436;2023-07-31T07:23:54;100630.72;;;16.87;85.12
72055;BME280;59936;51.490;5.436;2023-07-31T07:26:22;100626.78;;;16.83;85.04
72055;BME280;59936;51.490;5.436;2023-07-31T07:28:51;100624.06;;;16.83;85.11
72055;BME280;59936;51.490;5.436;2023-07-31T07:31:19;100628.44;;;16.84;85.61
72055;BME280;59936;51.490;5.436;2023-07-31T07:33:48;100623.03;;;16.84;85.80
72055;BME280;59936;51.490;5.436;2023-07-31T07:36:17;100625.53;;;16.86;85.27
72055;BME280;59936;51.490;5.436;2023-07-31T07:38:45;100622.59;;;16.87;85.26
72055;BME280;59936;51.490;5.436;2023-07-31T07:41:14;100630.31;;;16.84;86.06
72055;BME280;59936;51.490;5.436;2023-07-31T07:43:42;100634.47;;;16.86;85.44
72055;BME280;59936;51.490;5.436;2023-07-31T07:46:11;100634.47;;;16.86;85.25
72055;BME280;59936;51.490;5.436;2023-07-31T07:48:40;100628.84;;;16.88;85.33
72055;BME280;59936;51.490;5.436;2023-07-31T07:51:08;100626.34;;;16.86;86.25
72055;BME280;59936;51.490;5.436;2023-07-31T07:53:37;100621.97;;;16.92;85.46
72055;BME280;59936;51.490;5.436;2023-07-31T07:56:05;100622.41;;;16.95;86.26
72055;BME280;59936;51.490;5.436;2023-07-31T07:58:34;100631.31;;;17.02;85.64
72055;BME280;59936;51.490;5.436;2023-07-31T08:01:02;100631.31;;;17.02;85.64
72055;BME280;59936;51.490;5.436;2023-07-31T08:03:31;100628.03;;;16.94;85.88
72055;BME280;59936;51.490;5.436;2023-07-31T08:06:00;100627.81;;;16.95;85.84
72055;BME280;59936;51.490;5.436;2023-07-31T08:08:29;100625.34;;;16.94;85.75
72055;BME280;59936;51.490;5.436;2023-07-31T08:10:58;100629.88;;;17.00;85.73
72055;BME280;59936;51.490;5.436;2023-07-31T08:13:27;100621.72;;;17.06;85.57
72055;BME280;59936;51.490;5.436;2023-07-31T08:15:55;100621.72;;;17.06;85.57
72055;BME280;59936;51.490;5.436;2023-07-31T08:18:30;100610.06;;;17.06;85.66
72055;BME280;59936;51.490;5.436;2023-07-31T08:21:02;100607.78;;;17.03;86.08
72055;BME280;59936;51.490;5.436;2023-07-31T08:23:31;100609.66;;;17.02;85.44
72055;BME280;59936;51.490;5.436;2023-07-31T08:25:59;100623.41;;;17.01;85.30
72055;BME280;59936;51.490;5.436;2023-07-31T08:28:28;100623.41;;;17.01;85.30
72055;BME280;59936;51.490;5.436;2023-07-31T08:30:58;100622.19;;;16.97;85.67
72055;BME280;59936;51.490;5.436;2023-07-31T08:33:26;100615.34;;;16.94;85.56
72055;BME280;59936;51.490;5.436;2023-07-31T08:35:55;100615.34;;;16.94;85.85
72055;BME280;59936;51.490;5.436;2023-07-31T08:38:23;100618.88;;;16.95;86.04
72055;BME280;59936;51.490;5.436;2023-07-31T08:40:52;100616.53;;;17.05;85.48
72055;BME280;59936;51.490;5.436;2023-07-31T08:43:22;100616.53;;;17.05;85.48
72055;BME280;59936;51.490;5.436;2023-07-31T08:45:54;100625.72;;;16.97;87.00
72055;BME280;59936;51.490;5.436;2023-07-31T08:48:23;100625.72;;;16.97;87.00
72055;BME280;59936;51.490;5.436;2023-07-31T08:50:53;100619.72;;;16.95;86.27
72055;BME280;59936;51.490;5.436;2023-07-31T08:53:21;100619.03;;;17.00;86.13
72055;BME280;59936;51.490;5.436;2023-07-31T08:55:52;100611.75;;;17.07;86.18
72055;BME280;59936;51.490;5.436;2023-07-31T08:58:22;100612.75;;;17.13;85.74
72055;BME280;59936;51.490;5.436;2023-07-31T09:00:52;100610.84;;;17.20;85.57
72055;BME280;59936;51.490;5.436;2023-07-31T09:03:24;100621.44;;;17.21;85.66
72055;BME280;59936;51.490;5.436;2023-07-31T09:05:56;100606.00;;;17.28;85.71
72055;BME280;59936;51.490;5.436;2023-07-31T09:08:26;100605.34;;;17.39;85.79
72055;BME280;59936;51.490;5.436;2023-07-31T09:11:02;100609.47;;;17.42;85.65
72055;BME280;59936;51.490;5.436;2023-07-31T09:13:31;100605.72;;;17.43;85.69
72055;BME280;59936;51.490;5.436;2023-07-31T09:16:00;100615.03;;;17.60;85.46
72055;BME280;59936;51.490;5.436;2023-07-31T09:18:29;100615.03;;;17.60;85.46
72055;BME280;59936;51.490;5.436;2023-07-31T09:21:04;100608.88;;;17.71;85.45
72055;BME280;59936;51.490;5.436;2023-07-31T09:23:45;100608.88;;;17.71;85.45
72055;BME280;59936;51.490;5.436;2023-07-31T09:26:35;100599.09;;;17.70;85.32
72055;BME280;59936;51.490;5.436;2023-07-31T09:29:06;100594.69;;;17.76;85.29
72055;BME280;59936;51.490;5.436;2023-07-31T09:31:46;100593.03;;;17.75;85.24
72055;BME280;59936;51.490;5.436;2023-07-31T09:34:15;100595.31;;;17.78;85.29
72055;BME280;59936;51.490;5.436;2023-07-31T09:36:47;100586.28;;;17.84;85.22
72055;BME280;59936;51.490;5.436;2023-07-31T09:39:17;100582.06;;;17.95;85.11
72055;BME280;59936;51.490;5.436;2023-07-31T09:41:56;100587.44;;;18.01;84.90
72055;BME280;59936;51.490;5.436;2023-07-31T09:44:39;100590.75;;;18.03;84.87
72055;BME280;59936;51.490;5.436;2023-07-31T09:47:24;100583.00;;;18.07;84.82
72055;BME280;59936;51.490;5.436;2023-07-31T09:49:52;100577.78;;;18.05;85.02
72055;BME280;59936;51.490;5.436;2023-07-31T09:52:21;100593.41;;;18.10;84.96
72055;BME280;59936;51.490;5.436;2023-07-31T09:54:49;100581.50;;;18.11;84.90
72055;BME280;59936;51.490;5.436;2023-07-31T09:57:21;100585.88;;;18.12;84.99
72055;BME280;59936;51.490;5.436;2023-07-31T09:59:51;100586.88;;;18.18;84.87
72055;BME280;59936;51.490;5.436;2023-07-31T10:02:21;100584.78;;;18.20;84.87
72055;BME280;59936;51.490;5.436;2023-07-31T10:04:51;100584.78;;;18.20;84.87
72055;BME280;59936;51.490;5.436;2023-07-31T10:07:26;100579.75;;;18.23;84.66
72055;BME280;59936;51.490;5.436;2023-07-31T10:09:59;100580.28;;;18.32;84.59
72055;BME280;59936;51.490;5.436;2023-07-31T10:12:29;100574.78;;;18.38;84.45
72055;BME280;59936;51.490;5.436;2023-07-31T10:15:01;100567.41;;;18.45;84.28
72055;BME280;59936;51.490;5.436;2023-07-31T10:17:32;100563.19;;;18.50;84.29
72055;BME280;59936;51.490;5.436;2023-07-31T10:20:04;100564.34;;;18.60;84.15
72055;BME280;59936;51.490;5.436;2023-07-31T10:22:35;100561.53;;;18.85;83.78
72055;BME280;59936;51.490;5.436;2023-07-31T10:25:05;100561.53;;;18.85;83.78
72055;BME280;59936;51.490;5.436;2023-07-31T10:27:38;100558.59;;;18.87;83.77
72055;BME280;59936;51.490;5.436;2023-07-31T10:30:11;100561.91;;;18.89;83.77
72055;BME280;59936;51.490;5.436;2023-07-31T10:32:45;100578.66;;;18.86;83.43
72055;BME280;59936;51.490;5.436;2023-07-31T10:35:16;100568.09;;;18.77;83.59
72055;BME280;59936;51.490;5.436;2023-07-31T10:37:46;100572.91;;;18.75;83.66
72055;BME280;59936;51.490;5.436;2023-07-31T10:40:25;100566.38;;;18.83;83.77
72055;BME280;59936;51.490;5.436;2023-07-31T10:42:56;100565.00;;;18.92;83.60
72055;BME280;59936;51.490;5.436;2023-07-31T10:45:46;100562.91;;;18.94;83.28
72055;BME280;59936;51.490;5.436;2023-07-31T10:48:17;100564.56;;;18.95;82.92
72055;BME280;59936;51.490;5.436;2023-07-31T10:50:50;100568.09;;;18.96;83.17
72055;BME280;59936;51.490;5.436;2023-07-31T10:53:29;100571.75;;;18.90;82.70
72055;BME280;59936;51.490;5.436;2023-07-31T10:56:09;100579.09;;;18.83;82.95
72055;BME280;59936;51.490;5.436;2023-07-31T10:58:38;100567.66;;;18.99;82.96
72055;BME280;59936;51.490;5.436;2023-07-31T11:01:07;100567.66;;;18.99;82.96
72055;BME280;59936;51.490;5.436;2023-07-31T11:03:43;100562.16;;;19.05;83.01
72055;BME280;59936;51.490;5.436;2023-07-31T11:06:15;100554.28;;;19.16;82.72
72055;BME280;59936;51.490;5.436;2023-07-31T11:08:47;100556.47;;;19.37;82.64
72055;BME280;59936;51.490;5.436;2023-07-31T11:11:18;100551.50;;;19.64;82.09
72055;BME280;59936;51.490;5.436;2023-07-31T11:13:49;100556.28;;;19.80;81.39
72055;BME280;59936;51.490;5.436;2023-07-31T11:16:21;100552.00;;;19.72;81.30
72055;BME280;59936;51.490;5.436;2023-07-31T11:18:53;100560.09;;;19.61;81.26
72055;BME280;59936;51.490;5.436;2023-07-31T11:21:23;100550.72;;;19.45;81.42
72055;BME280;59936;51.490;5.436;2023-07-31T11:23:56;100550.59;;;19.40;81.84
72055;BME280;59936;51.490;5.436;2023-07-31T11:26:25;100549.53;;;19.41;81.50
72055;BME280;59936;51.490;5.436;2023-07-31T11:28:54;100567.78;;;19.52;81.75
72055;BME280;59936;51.490;5.436;2023-07-31T11:31:22;100562.97;;;19.66;81.64
72055;BME280;59936;51.490;5.436;2023-07-31T11:34:04;100562.97;;;19.66;81.64
72055;BME280;59936;51.490;5.436;2023-07-31T11:36:33;100537.25;;;19.80;81.34
72055;BME280;59936;51.490;5.436;2023-07-31T11:39:09;100534.78;;;20.02;80.98
72055;BME280;59936;51.490;5.436;2023-07-31T11:41:40;100537.63;;;20.19;80.38
72055;BME280;59936;51.490;5.436;2023-07-31T11:44:09;100547.47;;;20.20;80.38
72055;BME280;59936;51.490;5.436;2023-07-31T11:46:38;100533.59;;;20.09;80.34
72055;BME280;59936;51.490;5.436;2023-07-31T11:49:07;100549.22;;;19.91;80.55
72055;BME280;59936;51.490;5.436;2023-07-31T11:51:36;100535.69;;;19.72;80.80
72055;BME280;59936;51.490;5.436;2023-07-31T11:54:05;100532.69;;;19.62;81.20
72055;BME280;59936;51.490;5.436;2023-07-31T11:56:34;100532.09;;;19.60;81.01
72055;BME280;59936;51.490;5.436;2023-07-31T11:59:03;100530.56;;;19.53;81.17
72055;BME280;59936;51.490;5.436;2023-07-31T12:01:32;100539.16;;;19.50;81.46
72055;BME280;59936;51.490;5.436;2023-07-31T12:04:01;100532.56;;;19.57;81.40
72055;BME280;59936;51.490;5.436;2023-07-31T12:06:34;100523.09;;;19.60;81.22
72055;BME280;59936;51.490;5.436;2023-07-31T12:09:04;100534.44;;;19.45;81.15
72055;BME280;59936;51.490;5.436;2023-07-31T12:11:45;100534.50;;;19.38;81.25
72055;BME280;59936;51.490;5.436;2023-07-31T12:14:21;100533.19;;;19.29;81.18
72055;BME280;59936;51.490;5.436;2023-07-31T12:17:20;100533.19;;;19.29;81.18
72055;BME280;59936;51.490;5.436;2023-07-31T12:19:49;100538.19;;;19.32;81.00
72055;BME280;59936;51.490;5.436;2023-07-31T12:22:17;100538.19;;;19.32;81.00
72055;BME280;59936;51.490;5.436;2023-07-31T12:24:48;100527.78;;;19.29;80.93
72055;BME280;59936;51.490;5.436;2023-07-31T12:27:17;100510.50;;;19.24;80.81
72055;BME280;59936;51.490;5.436;2023-07-31T12:29:45;100510.50;;;19.24;80.81
72055;BME280;59936;51.490;5.436;2023-07-31T12:32:24;100508.47;;;19.19;80.94
72055;BME280;59936;51.490;5.436;2023-07-31T12:34:53;100503.63;;;19.21;80.88
72055;BME280;59936;51.490;5.436;2023-07-31T12:37:21;100503.63;;;19.21;80.88
72055;BME280;59936;51.490;5.436;2023-07-31T12:39:50;100511.56;;;19.23;80.92
72055;BME280;59936;51.490;5.436;2023-07-31T12:42:19;100510.50;;;19.24;80.48
72055;BME280;59936;51.490;5.436;2023-07-31T12:44:47;100510.50;;;19.24;80.48
72055;BME280;59936;51.490;5.436;2023-07-31T12:47:16;100495.34;;;19.16;80.59
72055;BME280;59936;51.490;5.436;2023-07-31T12:49:45;100498.53;;;19.13;80.83
72055;BME280;59936;51.490;5.436;2023-07-31T12:52:13;100488.84;;;19.17;80.64
72055;BME280;59936;51.490;5.436;2023-07-31T12:54:42;100480.31;;;19.43;80.39
72055;BME280;59936;51.490;5.436;2023-07-31T12:57:10;100480.31;;;19.43;80.39
72055;BME280;59936;51.490;5.436;2023-07-31T12:59:39;100481.41;;;19.66;79.93
72055;BME280;59936;51.490;5.436;2023-07-31T13:02:07;100471.38;;;19.66;79.46
72055;BME280;59936;51.490;5.436;2023-07-31T13:04:36;100484.94;;;19.66;79.48
72055;BME280;59936;51.490;5.436;2023-07-31T13:07:05;100484.94;;;19.66;79.48
72055;BME280;59936;51.490;5.436;2023-07-31T13:09:33;100472.78;;;19.69;79.43
72055;BME280;59936;51.490;5.436;2023-07-31T13:12:02;100467.47;;;19.74;79.01